Time;durP1;ratioP1;P1;durP2;ratioP2;P2;SDS_P1;SDS_P2;PMS_P1;PMS_P2;Temp;Humidity;BMP_temperature;BMP_pressure;BME280_temperature;BME280_humidity;BME280_pressure;Samples;Min_cycle;Max_cycle;Signal;HPM_P1;HPM_P2
2023/06/29 00:01:15;;;;;;;;;;;;;;;15.31;100.00;97742.97;18564362;32;19960;-45
2023/06/29 00:11:17;;;;;;;;;;;;;;;15.17;100.00;97748.41;18563859;32;20007;-47
2023/06/29 00:21:20;;;;;;;;;;;;;;;15.08;100.00;97755.63;18563217;32;19960;-49
2023/06/29 00:31:26;;;;;;;;;;;;;;;14.93;100.00;97747.72;18562349;32;20286;-46
2023/06/29 00:41:29;;;;;;;;;;;;;;;14.87;100.00;97734.16;18562349;32;19987;-46
2023/06/29 00:51:32;;;;;;;;;;;;;;;14.87;100.00;97733.38;18561552;32;19986;-46
2023/06/29 01:01:37;;;;;;;;;;;;;;;14.79;100.00;97742.22;18561471;32;20348;-46
2023/06/29 01:11:41;;;;;;;;;;;;;;;14.75;100.00;97744.72;18561104;32;20015;-45
2023/06/29 01:21:54;;;;;;;;;;;;;;;14.68;100.00;97741.56;18560779;32;20269;-46
2023/06/29 01:32:03;;;;;;;;;;;;;;;14.62;100.00;97739.97;18560281;32;20273;-45
2023/06/29 01:42:06;;;;;;;;;;;;;;;14.63;100.00;97739.69;18562344;31;19948;-46
2023/06/29 01:52:09;;;;;;;;;;;;;;;14.61;100.00;97731.00;18572438;32;19957;-47
2023/06/29 02:02:12;;;;;;;;;;;;;;;14.60;100.00;97723.94;18557724;32;19967;-46
2023/06/29 02:12:14;;;;;;;;;;;;;;;14.49;100.00;97723.28;18571213;32;20281;-47
2023/06/29 02:22:17;;;;;;;;;;;;;;;14.45;100.00;97708.66;18570592;32;19997;-46
2023/06/29 02:32:20;;;;;;;;;;;;;;;14.41;100.00;97704.91;18555637;32;20000;-45
2023/06/29 02:42:22;;;;;;;;;;;;;;;14.44;100.00;97703.50;18569489;32;20008;-46
2023/06/29 02:52:25;;;;;;;;;;;;;;;14.41;100.00;97707.63;18553514;32;19949;-45
2023/06/29 03:02:27;;;;;;;;;;;;;;;14.38;100.00;97710.94;18568337;32;19953;-46
2023/06/29 03:12:30;;;;;;;;;;;;;;;14.36;100.00;97711.22;18567613;32;19972;-46
2023/06/29 03:22:33;;;;;;;;;;;;;;;14.39;100.00;97702.47;18567091;32;19967;-45
2023/06/29 03:32:35;;;;;;;;;;;;;;;14.34;100.00;97705.25;18565915;32;20277;-45
2023/06/29 03:42:38;;;;;;;;;;;;;;;14.33;100.00;97709.06;18565899;32;19971;-49
2023/06/29 03:52:40;;;;;;;;;;;;;;;14.38;100.00;97705.50;18564924;32;19952;-47
2023/06/29 04:02:43;;;;;;;;;;;;;;;14.39;100.00;97698.94;18564444;32;20005;-48
2023/06/29 04:12:46;;;;;;;;;;;;;;;14.48;100.00;97697.16;18563612;32;19956;-47
2023/06/29 04:22:49;;;;;;;;;;;;;;;14.64;100.00;97699.72;18563469;31;20276;-48
2023/06/29 04:32:53;;;;;;;;;;;;;;;14.83;100.00;97689.59;18562550;32;19991;-47
2023/06/29 04:42:56;;;;;;;;;;;;;;;15.04;100.00;97683.81;18562773;32;19993;-49
2023/06/29 04:53:12;;;;;;;;;;;;;;;15.29;100.00;97685.25;18561833;32;19952;-50
2023/06/29 05:03:15;;;;;;;;;;;;;;;15.51;100.00;97683.78;18561499;32;20004;-49
2023/06/29 05:13:19;;;;;;;;;;;;;;;15.76;100.00;97679.75;18561038;31;19964;-47
2023/06/29 05:23:22;;;;;;;;;;;;;;;16.00;100.00;97681.47;18557442;32;19971;-48
2023/06/29 05:33:25;;;;;;;;;;;;;;;16.21;100.00;97684.56;18559133;32;19964;-48
2023/06/29 05:43:28;;;;;;;;;;;;;;;16.29;100.00;97672.91;18573045;32;19957;-47
2023/06/29 05:53:32;;;;;;;;;;;;;;;16.23;100.00;97685.06;18572254;32;19960;-50
2023/06/29 06:03:36;;;;;;;;;;;;;;;16.17;100.00;97669.91;18571845;32;19955;-48
2023/06/29 06:13:39;;;;;;;;;;;;;;;16.59;100.00;97681.50;18571389;32;20265;-49
2023/06/29 06:23:42;;;;;;;;;;;;;;;17.20;100.00;97686.63;18570667;32;19960;-49
2023/06/29 06:33:45;;;;;;;;;;;;;;;17.74;100.00;97692.78;18555358;32;20381;-47
2023/06/29 06:43:49;;;;;;;;;;;;;;;18.35;100.00;97696.81;18569492;32;20022;-50
2023/06/29 06:53:51;;;;;;;;;;;;;;;18.95;100.00;97692.50;18568795;32;19956;-48
2023/06/29 07:03:55;;;;;;;;;;;;;;;19.54;100.00;97678.16;18568051;31;20276;-49
2023/06/29 07:13:58;;;;;;;;;;;;;;;20.04;100.00;97684.09;18567776;32;19990;-48
2023/06/29 07:24:01;;;;;;;;;;;;;;;20.51;100.00;97683.91;18566872;32;19985;-49
2023/06/29 07:34:10;;;;;;;;;;;;;;;20.94;100.00;97674.53;18552820;32;19956;-49
2023/06/29 07:44:12;;;;;;;;;;;;;;;21.26;100.00;97672.06;18565032;32;19961;-49
2023/06/29 07:54:16;;;;;;;;;;;;;;;21.72;100.00;97683.06;18565108;32;19948;-51
2023/06/29 08:04:20;;;;;;;;;;;;;;;22.04;92.19;97672.28;18564496;32;20272;-48
2023/06/29 08:14:26;;;;;;;;;;;;;;;22.53;89.00;97674.16;18564204;32;19961;-48
2023/06/29 08:24:29;;;;;;;;;;;;;;;22.87;84.11;97669.19;18563154;32;19982;-50
2023/06/29 08:34:32;;;;;;;;;;;;;;;23.27;80.47;97660.06;18548306;32;19987;-49
2023/06/29 08:44:35;;;;;;;;;;;;;;;23.73;78.29;97665.12;18547807;32;19976;-48
2023/06/29 08:54:39;;;;;;;;;;;;;;;24.07;72.15;97653.72;18561806;31;19973;-48
2023/06/29 09:04:44;;;;;;;;;;;;;;;24.41;67.75;97643.03;18561585;32;19945;-47
2023/06/29 09:14:47;;;;;;;;;;;;;;;24.81;63.51;97647.41;18546763;32;19971;-47
2023/06/29 09:24:56;;;;;;;;;;;;;;;25.11;59.72;97625.44;18560773;32;20258;-47
2023/06/29 09:35:14;;;;;;;;;;;;;;;25.54;61.75;97629.00;18560379;32;19968;-47
2023/06/29 09:45:17;;;;;;;;;;;;;;;26.02;60.40;97628.56;18560064;32;19949;-47
2023/06/29 09:55:27;;;;;;;;;;;;;;;26.17;50.91;97634.28;18560005;32;19957;-46
2023/06/29 10:05:37;;;;;;;;;;;;;;;26.49;54.40;97626.41;18564927;32;19964;-49
2023/06/29 10:15:40;;;;;;;;;;;;;;;26.86;51.20;97624.88;18571365;32;20332;-48
2023/06/29 10:25:46;;;;;;;;;;;;;;;27.32;50.80;97624.53;18556675;32;19979;-46
2023/06/29 10:36:01;;;;;;;;;;;;;;;27.96;52.01;97609.59;18569921;32;19964;-48
2023/06/29 10:46:06;;;;;;;;;;;;;;;28.34;51.54;97609.41;18569453;32;20009;-47
2023/06/29 10:56:28;;;;;;;;;;;;;;;28.27;48.10;97598.25;18569141;32;19952;-47
2023/06/29 11:06:34;;;;;;;;;;;;;;;28.56;46.38;97596.41;18568683;32;20277;-48
2023/06/29 11:16:41;;;;;;;;;;;;;;;28.84;45.33;97597.72;18566760;32;19988;-47
2023/06/29 11:26:45;;;;;;;;;;;;;;;28.99;47.37;97599.31;18566711;31;19976;-47
2023/06/29 11:36:48;;;;;;;;;;;;;;;29.16;45.90;97591.38;18566269;32;20257;-47
2023/06/29 11:47:14;;;;;;;;;;;;;;;29.51;46.03;97582.28;18565744;32;19987;-48
2023/06/29 11:57:34;;;;;;;;;;;;;;;29.80;43.12;97571.09;18565047;32;20001;-51
2023/06/29 12:07:38;;;;;;;;;;;;;;;30.29;41.00;97570.56;18564611;32;19953;-49
2023/06/29 12:17:42;;;;;;;;;;;;;;;30.08;40.94;97552.72;18563922;32;19965;-48
2023/06/29 12:27:48;;;;;;;;;;;;;;;29.67;41.28;97558.78;18548427;31;20344;-51
2023/06/29 12:37:53;;;;;;;;;;;;;;;29.30;47.60;97552.47;18562465;32;19948;-48
2023/06/29 12:47:56;;;;;;;;;;;;;;;28.67;53.82;97546.37;18548029;32;19952;-48
2023/06/29 12:58:00;;;;;;;;;;;;;;;28.34;61.02;97529.59;18547468;32;20284;-48
2023/06/29 13:08:02;;;;;;;;;;;;;;;28.51;58.79;97525.25;18561107;32;20313;-46
2023/06/29 13:18:05;;;;;;;;;;;;;;;28.62;63.02;97530.84;18560858;32;19975;-49
2023/06/29 13:28:08;;;;;;;;;;;;;;;28.80;60.53;97519.00;18533125;31;19961;-49
2023/06/29 13:38:12;;;;;;;;;;;;;;;28.86;59.60;97522.97;18562898;32;19977;-47
2023/06/29 13:48:15;;;;;;;;;;;;;;;28.74;65.44;97515.81;18572926;32;20332;-48
2023/06/29 13:58:19;;;;;;;;;;;;;;;28.72;69.46;97502.28;18572672;32;19995;-47
2023/06/29 14:08:22;;;;;;;;;;;;;;;29.81;48.82;97486.28;18571563;32;20000;-49
2023/06/29 14:18:27;;;;;;;;;;;;;;;30.86;51.33;97485.78;18571291;32;20016;-48
2023/06/29 14:28:31;;;;;;;;;;;;;;;31.18;50.13;97484.78;18555895;32;19989;-47
2023/06/29 14:38:38;;;;;;;;;;;;;;;31.46;45.21;97471.72;18570039;32;19957;-48
2023/06/29 14:48:41;;;;;;;;;;;;;;;31.79;42.88;97466.59;18569520;32;20200;-48
2023/06/29 14:58:44;;;;;;;;;;;;;;;32.30;42.12;97464.00;18569143;32;19956;-48
2023/06/29 15:08:51;;;;;;;;;;;;;;;32.41;44.66;97451.44;18567982;32;19992;-49
2023/06/29 15:18:54;;;;;;;;;;;;;;;31.51;43.76;97441.34;18553218;31;19964;-47
2023/06/29 15:29:02;;;;;;;;;;;;;;;31.13;42.57;97426.56;18553001;32;20328;-50
2023/06/29 15:39:08;;;;;;;;;;;;;;;30.52;46.16;97416.66;18566541;32;20336;-47
2023/06/29 15:49:16;;;;;;;;;;;;;;;30.19;47.97;97402.09;18565556;32;19972;-47
2023/06/29 15:59:19;;;;;;;;;;;;;;;29.99;44.46;97390.69;18564775;32;19960;-48
2023/06/29 16:09:21;;;;;;;;;;;;;;;29.98;43.15;97383.53;18564427;32;20042;-46
2023/06/29 16:19:24;;;;;;;;;;;;;;;29.66;51.22;97379.66;18563814;32;20272;-48
2023/06/29 16:29:27;;;;;;;;;;;;;;;29.51;56.16;97378.16;18548607;32;19989;-47
2023/06/29 16:39:30;;;;;;;;;;;;;;;29.38;62.62;97381.38;18562843;32;20332;-47
2023/06/29 16:49:32;;;;;;;;;;;;;;;28.91;62.94;97380.66;18534760;32;20011;-47
2023/06/29 16:59:38;;;;;;;;;;;;;;;28.65;72.65;97379.87;18561635;32;19990;-47
2023/06/29 17:09:42;;;;;;;;;;;;;;;28.38;78.94;97388.59;18547340;31;20008;-48
2023/06/29 17:19:48;;;;;;;;;;;;;;;27.96;85.93;97389.28;18546274;32;19953;-46
2023/06/29 17:29:51;;;;;;;;;;;;;;;27.68;91.00;97383.22;18560596;31;19978;-49
2023/06/29 17:39:54;;;;;;;;;;;;;;;27.37;88.28;97373.56;18560268;32;19961;-48
2023/06/29 17:49:57;;;;;;;;;;;;;;;26.98;93.66;97372.13;18560829;32;19996;-46
2023/06/29 18:00:01;;;;;;;;;;;;;;;26.77;99.86;97383.09;18533142;32;19993;-49
2023/06/29 18:10:06;;;;;;;;;;;;;;;26.82;100.00;97368.84;18559251;32;19993;-46
2023/06/29 18:20:10;;;;;;;;;;;;;;;28.18;92.75;97371.47;18559028;32;19956;-47
2023/06/29 18:30:13;;;;;;;;;;;;;;;26.93;98.35;97385.56;18567832;31;19956;-47
2023/06/29 18:40:16;;;;;;;;;;;;;;;25.96;100.00;97396.53;18570087;32;20004;-46
2023/06/29 18:50:19;;;;;;;;;;;;;;;25.33;100.00;97387.88;18555004;32;20264;-47
2023/06/29 19:00:21;;;;;;;;;;;;;;;24.82;100.00;97386.31;18568369;32;19956;-46
2023/06/29 19:10:24;;;;;;;;;;;;;;;24.44;100.00;97377.00;18568374;32;20340;-45
2023/06/29 19:20:27;;;;;;;;;;;;;;;24.17;100.00;97376.91;18553519;32;19986;-47
2023/06/29 19:30:30;;;;;;;;;;;;;;;23.87;100.00;97391.31;18566784;31;19991;-46
2023/06/29 19:40:33;;;;;;;;;;;;;;;23.57;100.00;97383.66;18565492;32;20312;-46
2023/06/29 19:50:35;;;;;;;;;;;;;;;23.16;100.00;97374.91;18551719;31;19952;-46
2023/06/29 20:00:38;;;;;;;;;;;;;;;22.79;100.00;97380.72;18550858;32;19957;-46
2023/06/29 20:10:40;;;;;;;;;;;;;;;22.49;100.00;97376.50;18564298;32;19963;-46
2023/06/29 20:20:43;;;;;;;;;;;;;;;22.26;100.00;97378.25;18549290;32;19960;-47
2023/06/29 20:30:47;;;;;;;;;;;;;;;21.99;100.00;97373.25;18562879;31;19956;-46
2023/06/29 20:40:52;;;;;;;;;;;;;;;21.75;100.00;97407.19;18562865;32;19961;-47
2023/06/29 20:50:57;;;;;;;;;;;;;;;21.61;100.00;97412.28;18561978;32;19953;-47
2023/06/29 21:01:18;;;;;;;;;;;;;;;21.47;100.00;97399.69;18547593;32;19975;-47
2023/06/29 21:11:21;;;;;;;;;;;;;;;21.30;100.00;97387.00;18561422;32;20000;-46
2023/06/29 21:21:24;;;;;;;;;;;;;;;21.11;100.00;97390.38;18561050;32;19965;-48
2023/06/29 21:31:28;;;;;;;;;;;;;;;20.87;100.00;97391.22;18546432;32;19981;-46
2023/06/29 21:41:30;;;;;;;;;;;;;;;20.67;100.00;97383.88;18546337;32;20390;-48
2023/06/29 21:51:33;;;;;;;;;;;;;;;20.48;100.00;97379.72;18559936;32;19949;-48
2023/06/29 22:01:36;;;;;;;;;;;;;;;20.29;100.00;97392.06;18551256;32;20332;-48
2023/06/29 22:11:39;;;;;;;;;;;;;;;20.18;100.00;97379.91;18571666;32;19952;-46
2023/06/29 22:21:42;;;;;;;;;;;;;;;20.12;100.00;97362.09;18557157;32;19978;-48
2023/06/29 22:31:46;;;;;;;;;;;;;;;20.04;100.00;97372.00;18570139;32;20000;-46
2023/06/29 22:41:49;;;;;;;;;;;;;;;19.92;100.00;97378.25;18556113;32;19957;-48
2023/06/29 22:51:53;;;;;;;;;;;;;;;19.85;100.00;97386.25;18569466;32;20012;-48
2023/06/29 23:01:57;;;;;;;;;;;;;;;19.79;100.00;97382.09;18568914;32;20269;-46
2023/06/29 23:12:03;;;;;;;;;;;;;;;19.68;100.00;97380.88;18568079;32;20294;-46
2023/06/29 23:22:07;;;;;;;;;;;;;;;19.66;100.00;97386.72;18567740;32;19960;-45
2023/06/29 23:32:09;;;;;;;;;;;;;;;19.67;100.00;97373.81;18566641;32;20349;-46
2023/06/29 23:42:12;;;;;;;;;;;;;;;19.63;100.00;97357.22;18566260;32;19952;-46
2023/06/29 23:52:15;;;;;;;;;;;;;;;19.57;100.00;97356.63;18551611;32;20012;-46
